Time;durP1;ratioP1;P1;durP2;ratioP2;P2;SDS_P1;SDS_P2;PMS_P1;PMS_P2;Temp;Humidity;BMP_temperature;BMP_pressure;BME280_temperature;BME280_humidity;BME280_pressure;Samples;Min_cycle;Max_cycle;Signal;HPM_P1;HPM_P2
2021/01/29 00:01:07;;;;;;;19.83;12.13;;;7.40;99.90;;;;;;4937299;29;20051;-87
2021/01/29 00:03:33;;;;;;;16.30;10.32;;;7.40;99.90;;;;;;4923521;29;20032;-86
2021/01/29 00:06:02;;;;;;;20.70;11.57;;;7.40;99.90;;;;;;4948335;29;20039;-86
2021/01/29 00:08:28;;;;;;;21.23;11.80;;;7.40;99.90;;;;;;4962478;28;20023;-86
2021/01/29 00:10:54;;;;;;;21.67;11.88;;;7.50;99.90;;;;;;4961327;28;20046;-87
2021/01/29 00:13:21;;;;;;;21.35;12.35;;;7.40;99.90;;;;;;4938010;29;20035;-86
2021/01/29 00:15:49;;;;;;;22.92;12.52;;;7.50;99.90;;;;;;4961645;28;20035;-85
2021/01/29 00:18:18;;;;;;;22.88;11.40;;;7.50;99.90;;;;;;4944771;29;20072;-84
2021/01/29 00:20:45;;;;;;;26.67;11.20;;;7.50;99.90;;;;;;4939340;29;20060;-86
2021/01/29 00:23:16;;;;;;;22.42;10.65;;;7.60;99.90;;;;;;4954251;29;20041;-86
2021/01/29 00:25:47;;;;;;;24.23;12.30;;;7.60;99.90;;;;;;4961728;29;20087;-86
2021/01/29 00:28:14;;;;;;;23.25;11.85;;;7.20;99.90;;;;;;4955302;28;20035;-85
2021/01/29 00:30:41;;;;;;;24.48;12.00;;;7.50;99.90;;;;;;4962088;28;20019;-86
2021/01/29 00:33:11;;;;;;;22.58;10.32;;;7.60;99.90;;;;;;4960534;28;20027;-87
2021/01/29 00:35:40;;;;;;;23.95;9.50;;;7.60;99.90;;;;;;4914437;29;20024;-87
2021/01/29 00:38:07;;;;;;;21.38;10.13;;;7.40;99.90;;;;;;4893139;29;20048;-86
2021/01/29 00:40:36;;;;;;;25.92;11.10;;;7.60;99.90;;;;;;4882267;29;20070;-86
2021/01/29 00:43:08;;;;;;;25.98;11.15;;;7.60;99.90;;;;;;4894282;29;20113;-84
2021/01/29 00:45:34;;;;;;;;;;;7.60;99.90;;;;;;4899327;29;20056;-85
2021/01/29 00:48:01;;;;;;;19.13;8.77;;;7.60;99.90;;;;;;4894080;29;19907;-86
2021/01/29 00:50:27;;;;;;;19.42;9.68;;;7.60;99.90;;;;;;4905933;29;20028;-85
2021/01/29 00:52:54;;;;;;;19.67;10.48;;;7.60;99.90;;;;;;4902140;29;20051;-87
2021/01/29 00:55:21;;;;;;;22.10;9.63;;;7.60;99.90;;;;;;4895325;29;20088;-86
2021/01/29 00:57:49;;;;;;;18.05;10.32;;;7.60;99.90;;;;;;4901430;29;20056;-85
2021/01/29 01:00:18;;;;;;;16.75;8.95;;;7.70;99.90;;;;;;4889066;29;20049;-86
2021/01/29 01:02:45;;;;;;;23.55;10.15;;;7.70;99.90;;;;;;4879050;29;20063;-86
2021/01/29 01:05:13;;;;;;;18.75;8.88;;;7.70;99.90;;;;;;4912077;29;20117;-85
2021/01/29 01:07:39;;;;;;;21.25;10.63;;;7.70;99.90;;;;;;4920139;29;20105;-85
2021/01/29 01:10:09;;;;;;;17.65;8.95;;;7.80;99.90;;;;;;4960593;28;20027;-85
2021/01/29 01:12:34;;;;;;;17.27;8.40;;;7.70;99.90;;;;;;4963172;28;20110;-86
2021/01/29 01:15:04;;;;;;;22.15;8.70;;;7.80;99.90;;;;;;4979908;28;20134;-84
2021/01/29 01:17:32;;;;;;;18.20;8.90;;;7.80;99.90;;;;;;5050353;23;20111;-86
2021/01/29 01:19:57;;;;;;;20.33;8.65;;;7.80;99.90;;;;;;4961995;28;20027;-86
2021/01/29 01:22:38;;;;;;;19.38;9.27;;;7.80;99.90;;;;;;4978732;28;20088;-85
2021/01/29 01:25:07;;;;;;;19.60;7.78;;;7.80;99.90;;;;;;4959365;28;20063;-86
2021/01/29 01:27:32;;;;;;;24.08;8.40;;;7.80;99.90;;;;;;4964724;28;20019;-86
2021/01/29 01:29:58;;;;;;;22.80;8.57;;;7.80;99.90;;;;;;4960061;28;20035;-87
2021/01/29 01:32:26;;;;;;;20.80;8.85;;;7.80;99.90;;;;;;4941811;28;20039;-86
2021/01/29 01:34:52;;;;;;;23.45;8.65;;;7.80;99.90;;;;;;4925236;29;20065;-86
2021/01/29 01:37:17;;;;;;;22.27;7.65;;;7.90;99.90;;;;;;4925047;29;20042;-85
2021/01/29 01:39:45;;;;;;;21.80;10.30;;;7.90;99.90;;;;;;4931201;29;20004;-85
2021/01/29 01:42:14;;;;;;;22.98;7.97;;;7.90;99.90;;;;;;4972866;28;20034;-83
2021/01/29 01:44:43;;;;;;;20.35;7.78;;;7.90;99.90;;;;;;4973254;28;20016;-85
2021/01/29 01:47:21;;;;;;;21.63;8.02;;;7.90;99.90;;;;;;4960429;28;20019;-86
2021/01/29 01:49:50;;;;;;;19.15;6.82;;;7.90;99.90;;;;;;4943743;28;20044;-86
2021/01/29 01:52:27;;;;;;;14.80;6.30;;;8.00;99.90;;;;;;4960002;28;20026;-85
2021/01/29 01:55:00;;;;;;;16.88;5.93;;;8.00;99.90;;;;;;4959585;28;20019;-86
2021/01/29 01:57:30;;;;;;;12.20;6.18;;;7.90;99.90;;;;;;4943766;28;20124;-86
2021/01/29 02:00:05;;;;;;;18.23;5.72;;;7.90;99.90;;;;;;4928907;28;20035;-86
2021/01/29 02:02:37;;;;;;;15.35;6.50;;;7.90;99.90;;;;;;4960802;28;20056;-85
2021/01/29 02:05:08;;;;;;;13.60;5.80;;;7.90;99.90;;;;;;4940270;28;20104;-86
2021/01/29 02:07:58;;;;;;;11.10;5.43;;;7.90;99.90;;;;;;4978867;28;20035;-86
2021/01/29 02:10:29;;;;;;;17.83;6.38;;;7.90;99.90;;;;;;4960741;28;20035;-86
2021/01/29 02:12:59;;;;;;;15.35;6.15;;;7.80;99.90;;;;;;4975964;28;20031;-87
2021/01/29 02:15:34;;;;;;;10.48;6.22;;;7.80;99.90;;;;;;4960908;28;20032;-87
2021/01/29 02:18:27;;;;;;;15.82;5.75;;;7.80;99.90;;;;;;4940907;29;20071;-86
2021/01/29 02:21:24;;;;;;;14.20;5.78;;;7.80;99.90;;;;;;4959877;28;20032;-86
2021/01/29 02:23:53;;;;;;;12.25;6.05;;;7.80;99.90;;;;;;4970544;28;20073;-87
2021/01/29 02:26:54;;;;;;;11.85;6.25;;;7.80;99.90;;;;;;4951560;28;20023;-85
2021/01/29 02:29:41;;;;;;;17.08;6.85;;;7.80;99.90;;;;;;4962543;28;20039;-86
2021/01/29 02:32:28;;;;;;;11.30;6.03;;;7.70;99.90;;;;;;4951004;28;20020;-85
2021/01/29 02:35:19;;;;;;;14.15;5.75;;;7.80;99.90;;;;;;4956222;28;20015;-86
2021/01/29 02:38:15;;;;;;;13.40;5.75;;;8.00;99.90;;;;;;4952398;28;20051;-85
2021/01/29 02:41:15;;;;;;;13.38;5.68;;;7.80;99.90;;;;;;4950335;29;20071;-86
2021/01/29 02:43:55;;;;;;;13.18;5.93;;;7.70;99.90;;;;;;4930423;29;20027;-87
2021/01/29 02:46:43;;;;;;;16.33;6.18;;;7.70;99.90;;;;;;4939919;29;20509;-86
2021/01/29 02:49:37;;;;;;;11.98;6.32;;;7.70;99.90;;;;;;4924511;29;20032;-87
2021/01/29 02:52:13;;;;;;;17.52;5.78;;;7.80;99.90;;;;;;4944264;29;20055;-87
2021/01/29 02:54:53;;;;;;;17.42;5.63;;;7.80;99.90;;;;;;4926240;29;20385;-86
2021/01/29 02:57:34;;;;;;;12.27;5.35;;;7.80;99.90;;;;;;4945249;29;20031;-87
2021/01/29 03:00:09;;;;;;;14.10;5.97;;;7.80;99.90;;;;;;4949220;29;20062;-85
2021/01/29 03:03:01;;;;;;;12.00;6.20;;;7.80;99.90;;;;;;4956635;29;20024;-85
2021/01/29 03:05:38;;;;;;;16.05;5.93;;;7.80;99.90;;;;;;4957009;28;20051;-86
2021/01/29 03:08:24;;;;;;;12.95;5.93;;;7.80;99.90;;;;;;4941849;29;20042;-85
2021/01/29 03:11:03;;;;;;;10.18;5.22;;;7.80;99.90;;;;;;4940478;29;20034;-86
2021/01/29 03:14:03;;;;;;;10.52;5.10;;;7.80;99.90;;;;;;4947250;29;20031;-86
2021/01/29 03:16:53;;;;;;;15.15;6.25;;;7.80;99.90;;;;;;4927250;29;20035;-86
2021/01/29 03:19:22;;;;;;;17.52;5.60;;;7.80;99.90;;;;;;4953721;29;20056;-86
2021/01/29 03:21:53;;;;;;;12.80;4.70;;;7.80;99.90;;;;;;4950611;29;20106;-85
2021/01/29 03:24:32;;;;;;;12.98;5.32;;;7.70;99.90;;;;;;4945542;29;20456;-85
2021/01/29 03:27:23;;;;;;;14.32;5.68;;;7.90;99.90;;;;;;4937998;29;20036;-85
2021/01/29 03:29:56;;;;;;;12.98;4.30;;;7.90;99.90;;;;;;4936321;29;20069;-86
2021/01/29 03:32:25;;;;;;;7.25;3.85;;;7.90;99.90;;;;;;4956716;29;20031;-87
2021/01/29 03:35:20;;;;;;;9.15;4.55;;;7.90;99.90;;;;;;4939143;29;20063;-85
2021/01/29 03:38:01;;;;;;;11.63;5.10;;;7.90;99.90;;;;;;4941393;29;20039;-86
2021/01/29 03:40:31;;;;;;;8.82;4.82;;;7.90;99.90;;;;;;4941478;29;20051;-86
2021/01/29 03:43:27;;;;;;;11.10;4.70;;;8.00;99.90;;;;;;4935987;29;20028;-85
2021/01/29 03:46:28;;;;;;;11.45;4.13;;;8.00;99.90;;;;;;4925081;29;20369;-85
2021/01/29 03:49:23;;;;;;;8.43;4.82;;;8.00;99.90;;;;;;4951527;29;20046;-86
2021/01/29 03:52:46;;;;;;;16.95;6.60;;;8.00;99.90;;;;;;4862828;29;20045;-87
2021/01/29 03:55:15;;;;;;;8.18;4.55;;;8.00;99.90;;;;;;4884414;29;20343;-86
2021/01/29 03:57:56;;;;;;;8.82;4.53;;;8.00;99.90;;;;;;4897888;29;20036;-85
2021/01/29 04:00:40;;;;;;;15.57;4.90;;;8.00;99.90;;;;;;4897189;29;20055;-85
2021/01/29 04:03:08;;;;;;;11.50;5.57;;;8.00;99.90;;;;;;4882214;29;20035;-85
2021/01/29 04:06:01;;;;;;;11.70;4.70;;;8.00;99.90;;;;;;4898735;29;20034;-85
2021/01/29 04:08:47;;;;;;;13.10;4.72;;;8.10;99.90;;;;;;4885648;29;20036;-86
2021/01/29 04:11:20;;;;;;;10.60;4.25;;;8.00;99.90;;;;;;4898959;29;20383;-86
2021/01/29 04:13:51;;;;;;;11.52;4.68;;;8.00;99.90;;;;;;4882765;29;20454;-86
2021/01/29 04:16:47;;;;;;;8.02;4.50;;;8.10;99.90;;;;;;4898165;29;20119;-86
2021/01/29 04:19:21;;;;;;;8.50;4.25;;;8.10;99.90;;;;;;4902396;29;20076;-87
2021/01/29 04:22:17;;;;;;;8.23;5.07;;;8.00;99.90;;;;;;4900571;29;20028;-87
2021/01/29 04:24:50;;;;;;;10.75;4.95;;;8.10;99.90;;;;;;4882778;29;20074;-87
2021/01/29 04:27:25;;;;;;;7.63;4.20;;;8.10;99.90;;;;;;4887687;29;20017;-87
2021/01/29 04:30:09;;;;;;;7.75;4.45;;;8.10;99.90;;;;;;4908741;29;20033;-86
2021/01/29 04:32:44;;;;;;;9.40;4.47;;;8.10;99.90;;;;;;4959841;29;20110;-86
2021/01/29 04:35:19;;;;;;;10.95;4.85;;;8.10;99.90;;;;;;4968860;29;20270;-86
2021/01/29 04:38:00;;;;;;;8.98;4.82;;;8.20;99.90;;;;;;4944415;29;20027;-85
2021/01/29 04:40:29;;;;;;;8.80;4.47;;;8.20;99.90;;;;;;4948467;29;20030;-86
2021/01/29 04:43:38;;;;;;;8.32;4.22;;;8.20;99.90;;;;;;4947627;29;20024;-86
2021/01/29 04:46:13;;;;;;;11.38;4.38;;;8.20;99.90;;;;;;4963565;29;20062;-87
2021/01/29 04:48:44;;;;;;;9.20;4.32;;;8.20;99.90;;;;;;4961330;29;20210;-86
2021/01/29 04:51:10;;;;;;;9.82;4.43;;;8.30;99.90;;;;;;4946039;29;20058;-86
2021/01/29 04:53:54;;;;;;;7.93;4.03;;;8.30;99.90;;;;;;4959087;29;20057;-87
2021/01/29 04:56:52;;;;;;;12.07;4.53;;;8.30;99.90;;;;;;4956630;29;20064;-86
2021/01/29 04:59:32;;;;;;;6.65;4.03;;;8.30;99.90;;;;;;4902858;29;20428;-86
2021/01/29 05:02:20;;;;;;;8.98;4.60;;;8.30;99.90;;;;;;4915057;29;20028;-85
2021/01/29 05:04:49;;;;;;;11.18;4.97;;;8.40;99.90;;;;;;4904541;29;20029;-87
2021/01/29 05:07:27;;;;;;;7.60;3.60;;;8.40;99.90;;;;;;4869411;29;20125;-86
2021/01/29 05:10:07;;;;;;;11.45;4.43;;;8.40;99.90;;;;;;4879432;29;20037;-86
2021/01/29 05:13:20;;;;;;;7.28;3.90;;;8.40;99.90;;;;;;4867311;29;20045;-86
2021/01/29 05:16:07;;;;;;;8.15;4.97;;;8.50;99.90;;;;;;4805613;29;20093;-84
2021/01/29 05:19:06;;;;;;;11.38;4.68;;;8.50;99.90;;;;;;4808060;29;20093;-85
2021/01/29 05:22:03;;;;;;;14.43;5.70;;;8.50;99.90;;;;;;4822485;29;20043;-85
2021/01/29 05:24:36;;;;;;;10.10;5.88;;;8.60;99.90;;;;;;4765564;30;20044;-86
2021/01/29 05:27:26;;;;;;;10.65;5.70;;;8.60;99.90;;;;;;4786013;29;20039;-86
2021/01/29 05:30:33;;;;;;;11.75;6.38;;;8.50;99.90;;;;;;4795438;29;20369;-86
2021/01/29 05:33:09;;;;;;;17.63;7.35;;;8.60;99.90;;;;;;4770311;30;20427;-87
2021/01/29 05:35:38;;;;;;;12.10;6.43;;;8.60;99.90;;;;;;4774876;30;20039;-86
2021/01/29 05:38:35;;;;;;;12.02;7.32;;;8.60;99.90;;;;;;4772238;30;20036;-87
2021/01/29 05:41:38;;;;;;;14.38;6.85;;;8.60;99.90;;;;;;4749691;30;20036;-86
2021/01/29 05:44:23;;;;;;;8.75;5.95;;;8.60;99.90;;;;;;4755802;30;20134;-87
2021/01/29 05:47:13;;;;;;;8.25;5.45;;;8.60;99.90;;;;;;4776107;30;20039;-87
2021/01/29 05:49:57;;;;;;;14.13;6.10;;;8.60;99.90;;;;;;4768804;30;20139;-88
2021/01/29 05:53:00;;;;;;;10.55;5.35;;;8.60;99.90;;;;;;4803588;29;20129;-86
2021/01/29 05:55:40;;;;;;;11.50;4.93;;;8.60;99.90;;;;;;4818282;29;20303;-85
2021/01/29 05:58:33;;;;;;;8.77;4.10;;;8.60;99.90;;;;;;4831863;29;20287;-85
2021/01/29 06:01:30;;;;;;;5.57;3.50;;;8.70;99.90;;;;;;4861364;29;20033;-84
2021/01/29 06:04:32;;;;;;;3.22;2.60;;;8.80;99.90;;;;;;4899939;29;20043;-86
2021/01/29 06:07:33;;;;;;;2.63;1.80;;;8.90;99.90;;;;;;4907435;29;20037;-85
2021/01/29 06:10:38;;;;;;;2.05;1.85;;;9.00;99.90;;;;;;4899704;29;20056;-85
2021/01/29 06:13:12;;;;;;;3.00;1.58;;;9.00;99.90;;;;;;4911612;29;20051;-85
2021/01/29 06:16:15;;;;;;;2.17;1.20;;;9.10;99.90;;;;;;4938258;29;20061;-85
2021/01/29 06:19:14;;;;;;;1.30;1.10;;;9.30;99.90;;;;;;4943402;29;20063;-85
2021/01/29 06:21:59;;;;;;;1.50;1.10;;;9.30;99.90;;;;;;4947879;29;20187;-85
2021/01/29 06:24:52;;;;;;;1.98;1.00;;;9.40;99.90;;;;;;4953552;29;20023;-84
2021/01/29 06:27:42;;;;;;;1.30;1.20;;;9.40;99.90;;;;;;4947294;29;20335;-84
2021/01/29 06:30:32;;;;;;;1.30;1.20;;;9.50;99.90;;;;;;4937905;29;20030;-85
2021/01/29 06:33:00;;;;;;;2.07;1.07;;;9.50;99.90;;;;;;4949491;28;20023;-85
2021/01/29 06:35:44;;;;;;;1.42;1.10;;;9.50;99.90;;;;;;4935143;28;20012;-86
2021/01/29 06:38:19;;;;;;;2.10;1.20;;;9.50;99.90;;;;;;4972226;29;20035;-85
2021/01/29 06:40:47;;;;;;;1.55;1.23;;;9.50;99.90;;;;;;4965471;28;20405;-85
2021/01/29 06:44:09;;;;;;;1.75;1.20;;;9.50;99.90;;;;;;4969230;29;20046;-85
2021/01/29 06:46:53;;;;;;;;;;;9.50;99.90;;;;;;4864688;29;20034;-84
2021/01/29 06:49:52;;;;;;;1.20;1.00;;;9.50;99.90;;;;;;4881119;29;20246;-85
2021/01/29 06:52:37;;;;;;;1.52;1.05;;;9.50;99.90;;;;;;4870200;29;20030;-85
2021/01/29 06:55:27;;;;;;;1.40;1.10;;;9.50;99.90;;;;;;4887963;29;20069;-86
2021/01/29 06:58:16;;;;;;;1.50;1.17;;;9.50;99.90;;;;;;4870904;29;20460;-85
2021/01/29 07:01:21;;;;;;;2.55;1.55;;;9.50;99.90;;;;;;4876567;29;20053;-85
2021/01/29 07:04:08;;;;;;;2.72;1.00;;;9.50;99.90;;;;;;4882029;29;20033;-85
2021/01/29 07:06:59;;;;;;;1.98;1.30;;;9.40;99.90;;;;;;4862151;29;20030;-85
2021/01/29 07:09:36;;;;;;;1.92;1.38;;;9.40;99.90;;;;;;4887022;29;20182;-85
2021/01/29 07:12:16;;;;;;;1.98;1.25;;;9.40;99.90;;;;;;4903645;29;20033;-86
2021/01/29 07:14:54;;;;;;;1.50;1.20;;;9.40;99.90;;;;;;4904640;29;20017;-85
2021/01/29 07:17:39;;;;;;;1.95;1.08;;;9.40;99.90;;;;;;4870357;29;20074;-83
2021/01/29 07:20:38;;;;;;;3.28;1.60;;;9.40;99.90;;;;;;4891524;29;20040;-86
2021/01/29 07:23:33;;;;;;;1.80;1.10;;;9.30;99.90;;;;;;4929025;29;20038;-86
2021/01/29 07:26:43;;;;;;;2.47;1.35;;;9.30;99.90;;;;;;4943052;29;20027;-85
2021/01/29 07:29:14;;;;;;;2.65;1.63;;;9.30;99.90;;;;;;4887249;29;20066;-85
2021/01/29 07:31:46;;;;;;;2.55;1.42;;;9.30;99.90;;;;;;4878653;29;20478;-87
2021/01/29 07:34:48;;;;;;;3.33;1.67;;;9.30;99.90;;;;;;4891961;29;20134;-88
2021/01/29 07:37:48;;;;;;;3.28;1.95;;;9.30;99.90;;;;;;4876699;29;20052;-87
2021/01/29 07:41:07;;;;;;;2.72;1.90;;;9.30;99.90;;;;;;4873686;29;20089;-87
2021/01/29 07:43:50;;;;;;;8.43;3.30;;;9.20;99.90;;;;;;4845589;29;20081;-86
2021/01/29 07:46:38;;;;;;;2.80;2.35;;;9.30;99.90;;;;;;4859887;29;20033;-87
2021/01/29 07:49:38;;;;;;;4.78;2.53;;;9.30;99.90;;;;;;4845351;29;20387;-87
2021/01/29 07:52:15;;;;;;;3.72;2.08;;;9.20;99.90;;;;;;4800295;29;20366;-87
2021/01/29 07:54:54;;;;;;;10.18;3.38;;;9.20;99.90;;;;;;4791080;30;20066;-90
2021/01/29 07:57:50;;;;;;;2.78;2.13;;;9.30;99.90;;;;;;4784101;30;20039;-87
2021/01/29 09:08:03;;;;;;;29.17;5.22;;;9.60;99.90;;;;;;4962561;29;20054;-86
2021/01/29 09:13:59;;;;;;;18.20;4.10;;;9.30;99.90;;;;;;4958480;29;20098;-87
2021/01/29 09:16:47;;;;;;;12.82;4.85;;;9.70;99.90;;;;;;4962435;29;20038;-88
2021/01/29 09:19:16;;;;;;;19.95;4.75;;;9.80;99.90;;;;;;4958005;29;20047;-88
2021/01/29 09:22:09;;;;;;;20.67;5.78;;;9.80;99.90;;;;;;4965515;29;20097;-88
2021/01/29 09:24:59;;;;;;;19.60;5.05;;;9.80;99.90;;;;;;4871528;29;20053;-88
2021/01/29 09:27:34;;;;;;;14.88;4.50;;;9.90;99.90;;;;;;4866829;29;20174;-88
2021/01/29 09:30:21;;;;;;;21.83;5.13;;;9.90;99.90;;;;;;4887129;29;20037;-85
2021/01/29 09:33:17;;;;;;;20.35;4.10;;;9.90;99.90;;;;;;4876340;29;20025;-90
2021/01/29 09:36:11;;;;;;;17.02;4.57;;;9.90;99.90;;;;;;4862635;29;20045;-87
2021/01/29 09:38:47;;;;;;;18.02;5.80;;;9.90;99.90;;;;;;4873900;29;20056;-88
2021/01/29 09:41:29;;;;;;;16.00;3.95;;;9.90;99.90;;;;;;4885387;29;20087;-88
2021/01/29 09:44:36;;;;;;;32.70;6.60;;;9.90;99.90;;;;;;4850895;29;20036;-86
2021/01/29 09:47:05;;;;;;;21.20;5.10;;;9.90;99.90;;;;;;4856449;29;20037;-88
2021/01/29 09:49:34;;;;;;;30.88;6.72;;;10.00;99.90;;;;;;4862097;29;20123;-83
2021/01/29 09:52:00;;;;;;;22.55;4.50;;;10.00;99.90;;;;;;4863819;29;20112;-85
2021/01/29 09:54:55;;;;;;;28.92;5.72;;;10.00;99.90;;;;;;4874944;29;20085;-83
2021/01/29 09:57:48;;;;;;;23.38;4.32;;;10.10;99.90;;;;;;4860645;29;20059;-87
2021/01/29 10:00:21;;;;;;;17.88;4.68;;;10.30;99.90;;;;;;4864155;29;20026;-88
2021/01/29 10:03:13;;;;;;;17.25;4.13;;;10.30;99.90;;;;;;4956362;29;20027;-86
2021/01/29 10:05:56;;;;;;;24.73;4.43;;;10.30;99.90;;;;;;4959766;29;20110;-87
2021/01/29 10:08:40;;;;;;;20.83;5.18;;;10.40;99.90;;;;;;4939935;29;20046;-85
2021/01/29 10:11:25;;;;;;;19.30;4.53;;;10.40;99.90;;;;;;4936939;29;20591;-87
2021/01/29 10:14:10;;;;;;;21.52;5.85;;;10.50;99.90;;;;;;4944359;29;20565;-89
2021/01/29 10:17:03;;;;;;;18.15;3.95;;;10.50;99.90;;;;;;4975111;29;20023;-87
2021/01/29 10:23:04;;;;;;;22.15;5.55;;;10.70;99.90;;;;;;4968997;29;20050;-88
2021/01/29 10:26:01;;;;;;;22.60;5.80;;;10.80;99.90;;;;;;4976484;29;20047;-88
2021/01/29 10:29:06;;;;;;;22.88;4.85;;;10.90;99.90;;;;;;4910756;29;20258;-87
2021/01/29 10:31:44;;;;;;;23.20;4.43;;;11.00;99.90;;;;;;4892780;29;20067;-88
2021/01/29 10:34:48;;;;;;;40.50;7.07;;;11.00;99.90;;;;;;4906032;29;20040;-90
2021/01/29 10:37:39;;;;;;;21.60;5.65;;;11.10;99.90;;;;;;4912631;29;20043;-88
2021/01/29 10:40:29;;;;;;;19.77;3.95;;;11.20;99.90;;;;;;4912781;29;20021;-88
2021/01/29 10:43:07;;;;;;;23.38;5.07;;;11.10;99.90;;;;;;4893887;29;20069;-86
2021/01/29 10:45:39;;;;;;;16.05;4.90;;;11.10;99.90;;;;;;4895860;29;20016;-87
2021/01/29 10:48:20;;;;;;;16.52;4.93;;;11.10;99.90;;;;;;4882758;29;20041;-88
2021/01/29 10:51:19;;;;;;;19.60;4.65;;;11.10;99.90;;;;;;4889485;29;20489;-87
2021/01/29 10:53:47;;;;;;;24.13;5.60;;;11.10;99.90;;;;;;4874592;29;20049;-87
2021/01/29 10:56:19;;;;;;;23.17;5.82;;;11.10;99.90;;;;;;4888328;29;20033;-92
2021/01/29 10:59:11;;;;;;;12.88;3.53;;;11.30;99.90;;;;;;4921159;29;20035;-91
2021/01/29 11:01:46;;;;;;;18.15;4.55;;;11.50;99.90;;;;;;4943976;29;20038;-89
2021/01/29 11:04:37;;;;;;;17.23;4.35;;;11.50;99.90;;;;;;4954032;28;20090;-88
2021/01/29 11:07:18;;;;;;;21.00;6.95;;;11.60;99.90;;;;;;4955167;29;20110;-88
2021/01/29 11:09:52;;;;;;;;;;;11.60;99.90;;;;;;4957160;29;20502;-87
2021/01/29 11:12:25;;;;;;;18.58;4.90;;;11.60;99.90;;;;;;4940046;29;19970;-87
2021/01/29 11:15:13;;;;;;;21.02;5.85;;;11.60;99.90;;;;;;4957435;29;20106;-89
2021/01/29 11:18:00;;;;;;;20.73;4.60;;;11.50;99.90;;;;;;4941164;29;20077;-91
2021/01/29 11:20:41;;;;;;;28.92;5.65;;;11.60;99.90;;;;;;4972636;28;20032;-90
2021/01/29 11:23:47;;;;;;;23.80;6.47;;;11.70;99.90;;;;;;4956767;29;20051;-91
2021/01/29 11:26:37;;;;;;;28.70;9.63;;;11.80;99.90;;;;;;4951409;29;20031;-92
2021/01/29 11:29:12;;;;;;;24.42;5.93;;;11.90;99.90;;;;;;4968070;29;20019;-89
2021/01/29 11:32:06;;;;;;;18.88;4.40;;;11.80;99.90;;;;;;4950415;29;20079;-91
2021/01/29 11:34:36;;;;;;;19.98;4.60;;;11.80;99.90;;;;;;4918340;29;20027;-90
2021/01/29 11:37:16;;;;;;;28.17;7.00;;;11.80;99.90;;;;;;4929082;29;20059;-93
2021/01/29 11:39:50;;;;;;;18.25;4.97;;;11.80;99.90;;;;;;4950707;29;20023;-93
2021/01/29 11:42:27;;;;;;;22.58;5.20;;;11.80;99.90;;;;;;4966235;29;20027;-89
2021/01/29 11:45:21;;;;;;;22.13;6.70;;;11.80;99.90;;;;;;4940482;29;20429;-89
2021/01/29 11:48:27;;;;;;;18.20;5.10;;;11.70;99.90;;;;;;4940625;29;20329;-93
2021/01/29 11:51:18;;;;;;;16.23;4.28;;;11.50;99.90;;;;;;4937493;29;20036;-88
2021/01/29 11:54:32;;;;;;;17.98;5.43;;;11.40;99.90;;;;;;4939930;29;20103;-89
2021/01/29 11:57:53;;;;;;;16.92;4.78;;;11.30;99.90;;;;;;4897756;29;20642;-87
2021/01/29 12:00:33;;;;;;;11.38;4.68;;;11.40;99.90;;;;;;4830281;29;20038;-88
2021/01/29 12:03:11;;;;;;;11.70;3.60;;;11.50;99.90;;;;;;4820123;29;20043;-88
2021/01/29 12:05:58;;;;;;;10.35;4.50;;;11.50;99.90;;;;;;4825958;29;20114;-90
2021/01/29 12:09:13;;;;;;;;;;;;;;;;;;;;;
2021/01/29 12:11:57;;;;;;;13.60;3.40;;;11.70;99.90;;;;;;4843898;29;20038;-95
2021/01/29 12:14:56;;;;;;;14.30;4.40;;;11.60;99.90;;;;;;4832748;29;20031;-93
2021/01/29 12:17:36;;;;;;;13.88;4.65;;;11.30;99.90;;;;;;4818637;29;20099;-93
2021/01/29 12:20:29;;;;;;;;;;;;;;;;;;;;;
2021/01/29 12:23:27;;;;;;;27.60;7.32;;;11.80;99.90;;;;;;4821514;29;20114;-88
2021/01/29 12:26:11;;;;;;;15.25;4.65;;;11.80;99.90;;;;;;4811473;29;20103;-89
2021/01/29 12:29:19;;;;;;;12.45;4.40;;;12.00;99.90;;;;;;4800585;29;20043;-90
2021/01/29 12:31:59;;;;;;;14.80;4.22;;;11.90;99.90;;;;;;5044796;23;20058;-89
2021/01/29 12:34:54;;;;;;;13.17;3.30;;;11.90;99.90;;;;;;4959485;28;20027;-94
2021/01/29 12:37:33;;;;;;;14.38;3.83;;;11.90;99.90;;;;;;4953563;28;20318;-88
2021/01/29 12:40:05;;;;;;;5.95;2.92;;;11.80;99.90;;;;;;4962513;29;20035;-90
2021/01/29 12:43:11;;;;;;;13.52;2.80;;;11.60;99.90;;;;;;4941911;29;20031;-89
2021/01/29 12:45:49;;;;;;;12.95;3.42;;;11.30;99.90;;;;;;4935648;29;20074;-91
2021/01/29 12:49:01;;;;;;;6.25;1.88;;;11.00;99.90;;;;;;4961408;29;20023;-90
2021/01/29 12:51:29;;;;;;;5.88;2.22;;;10.70;99.90;;;;;;4920558;29;20032;-90
2021/01/29 12:54:00;;;;;;;10.48;3.05;;;10.50;99.90;;;;;;4925099;29;20118;-91
2021/01/29 12:56:35;;;;;;;9.10;2.25;;;10.30;99.90;;;;;;4903064;29;20045;-92
2021/01/29 12:59:03;;;;;;;8.68;2.35;;;10.30;99.90;;;;;;4904682;29;20040;-90
2021/01/29 13:01:34;;;;;;;7.95;2.33;;;10.20;99.90;;;;;;4912205;29;20033;-89
2021/01/29 13:04:33;;;;;;;11.20;3.25;;;10.20;99.90;;;;;;4919161;29;20173;-88
2021/01/29 13:07:27;;;;;;;7.18;2.70;;;10.30;99.90;;;;;;4913676;29;20052;-89
2021/01/29 13:10:08;;;;;;;8.30;3.55;;;10.40;99.90;;;;;;4904585;29;20204;-88
2021/01/29 13:13:02;;;;;;;8.32;2.67;;;10.40;99.90;;;;;;4888188;29;20042;-90
2021/01/29 13:15:58;;;;;;;11.88;3.83;;;10.60;99.90;;;;;;4886166;29;20111;-90
2021/01/29 13:19:05;;;;;;;11.85;3.53;;;10.60;99.90;;;;;;4897336;29;20063;-88
2021/01/29 13:21:52;;;;;;;9.18;2.80;;;10.70;99.90;;;;;;4884652;29;20071;-87
2021/01/29 13:24:30;;;;;;;12.70;3.83;;;10.80;99.90;;;;;;4898006;29;20163;-87
2021/01/29 13:27:16;;;;;;;16.88;4.35;;;10.90;99.90;;;;;;4888704;29;20059;-87
2021/01/29 13:29:42;;;;;;;10.93;3.13;;;11.00;99.90;;;;;;4941044;29;20441;-87
2021/01/29 13:32:39;;;;;;;12.65;3.97;;;10.90;99.90;;;;;;4942227;29;20086;-87
2021/01/29 13:35:08;;;;;;;14.30;5.03;;;11.00;99.90;;;;;;4954870;28;20031;-87
2021/01/29 13:37:37;;;;;;;11.23;3.92;;;11.10;99.90;;;;;;4972015;28;20047;-87
2021/01/29 13:40:38;;;;;;;15.65;4.28;;;11.80;99.90;;;;;;4960732;29;20015;-87
2021/01/29 13:43:29;;;;;;;23.63;5.13;;;11.50;99.90;;;;;;4902568;28;20025;-87
2021/01/29 13:46:02;;;;;;;21.50;5.68;;;11.90;99.90;;;;;;4932005;29;20033;-87
2021/01/29 13:48:28;;;;;;;15.00;4.00;;;11.90;99.90;;;;;;4937281;29;20091;-87
2021/01/29 13:51:18;;;;;;;15.50;4.57;;;12.10;99.90;;;;;;4920550;29;20108;-87
2021/01/29 13:53:47;;;;;;;15.82;4.20;;;12.00;99.90;;;;;;4913728;29;20091;-87
2021/01/29 13:56:30;;;;;;;16.15;4.60;;;11.90;99.90;;;;;;4899316;29;20120;-87
2021/01/29 13:59:13;;;;;;;21.02;4.82;;;11.90;99.90;;;;;;4925622;29;20041;-88
2021/01/29 14:01:56;;;;;;;13.95;4.07;;;11.90;99.90;;;;;;4898249;29;20040;-88
2021/01/29 14:04:41;;;;;;;15.45;3.53;;;12.00;99.90;;;;;;4907800;29;20048;-88
2021/01/29 14:07:11;;;;;;;11.77;3.75;;;12.00;99.90;;;;;;4906890;29;20071;-88
2021/01/29 14:09:40;;;;;;;14.82;4.07;;;12.00;99.90;;;;;;4926237;29;20040;-87
2021/01/29 14:12:11;;;;;;;15.65;4.55;;;13.00;99.90;;;;;;4906519;29;20047;-88
2021/01/29 14:14:57;;;;;;;;;;;11.80;99.90;;;;;;4903364;29;20033;-89
2021/01/29 14:17:50;;;;;;;17.20;4.93;;;11.60;99.90;;;;;;4831446;29;19912;-88
2021/01/29 14:20:50;;;;;;;14.23;3.95;;;11.20;99.90;;;;;;4867329;29;20057;-89
2021/01/29 14:24:04;;;;;;;13.40;4.70;;;10.90;99.90;;;;;;4857025;29;20045;-86
2021/01/29 14:26:56;;;;;;;15.43;4.13;;;10.60;99.90;;;;;;4810067;29;20126;-89
2021/01/29 14:29:36;;;;;;;12.20;3.78;;;10.40;99.90;;;;;;4782813;30;20054;-86
2021/01/29 14:32:05;;;;;;;17.50;5.53;;;10.10;99.90;;;;;;4788232;30;20059;-88
2021/01/29 14:34:58;;;;;;;13.93;3.97;;;10.10;99.90;;;;;;4808946;29;20039;-87
2021/01/29 14:37:48;;;;;;;24.40;3.50;;;9.90;99.90;;;;;;4805892;29;20099;-87
2021/01/29 14:40:52;;;;;;;11.93;3.53;;;9.80;99.90;;;;;;4792578;29;20053;-87
2021/01/29 14:43:55;;;;;;;9.38;3.40;;;9.50;99.90;;;;;;4774893;29;20092;-87
2021/01/29 14:46:52;;;;;;;9.63;3.60;;;9.30;99.90;;;;;;4784558;29;20040;-88
2021/01/29 14:49:33;;;;;;;9.48;3.05;;;9.20;99.90;;;;;;4776193;29;20021;-87
2021/01/29 14:52:10;;;;;;;8.20;2.28;;;9.10;99.90;;;;;;4774005;30;20036;-87
2021/01/29 14:54:49;;;;;;;6.60;2.50;;;9.10;99.90;;;;;;4779375;29;20039;-88
2021/01/29 14:57:29;;;;;;;14.75;3.60;;;9.00;99.90;;;;;;4796665;29;20069;-87
2021/01/29 15:00:00;;;;;;;12.65;2.95;;;9.10;99.90;;;;;;4819573;29;20047;-88
2021/01/29 15:02:51;;;;;;;11.35;2.75;;;9.10;99.90;;;;;;4810259;29;20039;-86
2021/01/29 15:05:34;;;;;;;11.52;2.70;;;9.20;99.90;;;;;;4830797;29;20033;-86
2021/01/29 15:08:27;;;;;;;12.60;3.03;;;9.10;99.90;;;;;;4923889;29;20025;-88
2021/01/29 15:10:58;;;;;;;12.00;4.57;;;9.00;99.90;;;;;;4918177;29;20024;-87
2021/01/29 15:13:58;;;;;;;8.43;2.30;;;8.80;99.90;;;;;;4925152;29;20084;-87
2021/01/29 15:16:49;;;;;;;8.20;2.70;;;8.70;99.90;;;;;;4926474;29;20042;-86
2021/01/29 15:19:24;;;;;;;7.68;2.67;;;8.60;99.90;;;;;;4923809;29;20125;-86
2021/01/29 15:21:56;;;;;;;5.60;2.50;;;8.60;99.90;;;;;;4926519;29;20123;-86
2021/01/29 15:24:29;;;;;;;;;;;8.50;99.90;;;;;;4909234;29;20116;-86
2021/01/29 15:26:58;;;;;;;14.77;2.78;;;8.50;99.90;;;;;;4922273;29;20001;-87